Terminal Aerodrome Forecast
Issued by NWS Denver/Boulder, CO

Home | Current Version | Previous Version | Text Only | Print | Product List | Glossary On
Versions: 1 2 3 4 5 6 7 8 9 10 11 12 13 14 15 16 17 18 19 20 21 22 23 24 25 26 27 28 29 30 31 32 33 34 35 36 37 38 39 40 41 42 43 44 45 46 47 48 49 50
000
FTUS45 KBOU 272109 AAB
TAFDEN
TAF AMD
KDEN 272109Z 2721/2824 VRB05KT P6SM FEW025 SCT060
     FM272300 36008KT P6SM FEW025 BKN060
     FM280300 18010KT P6SM FEW040 SCT060 BKN120
     FM280800 24007KT P6SM FEW035 SCT070 BKN100
     FM281000 28006KT P6SM FEW005 SCT100
     FM281200 33006KT P6SM VCFG BKN005
     FM281600 VRB05KT P6SM SCT005
     FM282100 04005KT P6SM VCSH SCT005 OVC040=

USA.gov is the U.S. government's official web portal to all federal, state and local government web resources and services.